createdAt,value
2017-10-22T00:01:32.592Z,2.70
2017-10-22T00:04:02.591Z,3.03
2017-10-22T00:06:30.624Z,2.42
2017-10-22T00:09:00.579Z,2.95
2017-10-22T00:11:29.686Z,3.05
2017-10-22T00:13:57.707Z,2.60
2017-10-22T00:16:25.726Z,3.08
2017-10-22T00:18:53.784Z,3.10
2017-10-22T00:21:23.035Z,2.53
2017-10-22T00:23:51.045Z,2.78
2017-10-22T00:26:20.422Z,2.30
2017-10-22T00:28:52.099Z,2.40
2017-10-22T00:31:21.130Z,2.37
2017-10-22T00:33:49.915Z,2.55
2017-10-22T00:36:19.154Z,1.90
2017-10-22T00:38:47.182Z,2.78
2017-10-22T00:41:16.431Z,2.50
2017-10-22T00:43:45.190Z,2.05
2017-10-22T00:46:13.238Z,2.35
2017-10-22T00:48:42.027Z,2.40
2017-10-22T00:51:10.882Z,3.03
2017-10-22T00:53:38.922Z,1.90
2017-10-22T00:56:06.926Z,2.40
2017-10-22T00:58:34.954Z,2.67
2017-10-22T01:01:02.975Z,1.98
2017-10-22T01:03:30.994Z,2.37
2017-10-22T01:06:07.383Z,2.10
2017-10-22T01:08:35.390Z,2.20
2017-10-22T01:11:03.407Z,1.90
2017-10-22T01:13:32.534Z,2.15
2017-10-22T01:16:04.286Z,1.70
2017-10-22T01:18:33.398Z,2.00
2017-10-22T01:21:01.445Z,1.65
2017-10-22T01:23:29.459Z,2.00
2017-10-22T01:25:58.358Z,2.42
2017-10-22T01:28:27.146Z,2.10
2017-10-22T01:30:55.930Z,2.65
2017-10-22T01:33:26.630Z,2.20
2017-10-22T01:51:25.728Z,1.65
2017-10-22T01:53:55.730Z,1.50
2017-10-22T01:56:23.742Z,2.12
2017-10-22T01:58:53.524Z,1.65
2017-10-22T02:01:22.509Z,1.70
2017-10-22T02:03:51.518Z,1.90
2017-10-22T02:06:19.537Z,1.98
2017-10-22T02:08:47.562Z,2.00
2017-10-22T02:11:18.278Z,1.65
2017-10-22T02:13:46.306Z,1.30
2017-10-22T02:16:15.346Z,2.03
2017-10-22T02:18:44.333Z,1.60
2017-10-22T02:21:12.361Z,1.45
2017-10-22T02:23:41.878Z,2.10
2017-10-22T02:26:09.890Z,2.60
2017-10-22T02:28:43.574Z,1.75
2017-10-22T02:31:12.562Z,2.10
2017-10-22T02:33:40.577Z,1.05
2017-10-22T02:36:09.546Z,1.27
2017-10-22T02:38:37.554Z,2.20
2017-10-22T02:41:05.578Z,1.65
2017-10-22T02:43:33.605Z,1.60
2017-10-22T02:46:01.619Z,1.25
2017-10-22T02:48:29.643Z,2.00
2017-10-22T02:50:58.771Z,1.10
2017-10-22T02:53:26.789Z,2.70
2017-10-22T02:55:55.730Z,1.27
2017-10-22T02:58:23.904Z,1.27
2017-10-22T03:00:51.885Z,1.35
2017-10-22T03:03:21.893Z,1.30
2017-10-22T03:05:50.889Z,1.60
2017-10-22T03:08:18.906Z,1.42
2017-10-22T03:10:48.857Z,1.45
2017-10-22T03:13:17.877Z,1.55
2017-10-22T03:15:47.665Z,1.65
2017-10-22T03:18:15.710Z,1.30
2017-10-22T03:20:43.753Z,1.20
2017-10-22T03:23:13.518Z,1.70
2017-10-22T03:25:42.501Z,2.03
2017-10-22T03:28:10.537Z,1.60
2017-10-22T03:30:39.470Z,1.12
2017-10-22T03:33:07.493Z,1.50
2017-10-22T03:35:36.437Z,1.50
2017-10-22T03:38:04.481Z,1.70
2017-10-22T03:40:34.413Z,1.30
2017-10-22T03:43:03.829Z,1.65
2017-10-22T03:45:52.521Z,1.95
2017-10-22T03:48:20.557Z,1.30
2017-10-22T03:50:48.581Z,1.40
2017-10-22T03:53:16.617Z,1.10
2017-10-22T03:55:50.089Z,1.70
2017-10-22T03:58:18.105Z,1.27
2017-10-22T04:00:46.121Z,1.25
2017-10-22T04:03:14.169Z,1.10
2017-10-22T04:05:47.893Z,1.05
2017-10-22T04:08:17.016Z,1.80
2017-10-22T04:10:50.578Z,1.10
2017-10-22T04:13:22.261Z,1.23
2017-10-22T04:15:51.069Z,1.40
2017-10-22T04:18:19.849Z,1.60
2017-10-22T04:20:49.649Z,1.42
2017-10-22T04:23:19.648Z,1.20
2017-10-22T04:25:47.661Z,1.30
2017-10-22T04:28:19.265Z,1.48
2017-10-22T04:30:48.259Z,1.20
2017-10-22T04:33:17.048Z,1.05
2017-10-22T04:35:46.081Z,1.20
2017-10-22T04:38:14.869Z,1.20
2017-10-22T04:40:43.825Z,1.30
2017-10-22T04:43:11.856Z,1.10
2017-10-22T04:45:45.089Z,1.25
2017-10-22T04:48:13.125Z,1.20
2017-10-22T04:50:41.152Z,1.40
2017-10-22T04:53:09.941Z,1.23
2017-10-22T04:55:39.737Z,1.40
2017-10-22T04:58:11.582Z,2.58
2017-10-22T05:00:40.593Z,1.37
2017-10-22T05:03:09.564Z,1.67
2017-10-22T05:05:39.576Z,1.20
2017-10-22T05:08:07.632Z,1.90
2017-10-22T05:10:37.576Z,1.37
2017-10-22T05:13:05.622Z,1.10
2017-10-22T05:15:33.641Z,1.30
2017-10-22T05:18:02.432Z,1.48
2017-10-22T05:20:33.240Z,1.70
2017-10-22T05:23:01.248Z,1.90
2017-10-22T05:25:29.284Z,1.40
2017-10-22T05:27:59.313Z,1.20
2017-10-22T05:30:31.152Z,1.30
2017-10-22T05:32:59.180Z,1.25
2017-10-22T05:35:29.132Z,1.80
2017-10-22T05:37:59.148Z,1.35
2017-10-22T05:40:27.172Z,1.40
2017-10-22T05:42:55.190Z,1.00
2017-10-22T05:45:24.920Z,1.67
2017-10-22T05:47:53.700Z,1.62
2017-10-22T05:50:22.507Z,1.45
2017-10-22T05:52:53.224Z,1.75
2017-10-22T05:55:22.024Z,1.58
2017-10-22T05:57:50.812Z,1.77
2017-10-22T06:00:19.623Z,1.80
2017-10-22T06:02:47.656Z,1.35
2017-10-22T06:05:15.647Z,1.52
2017-10-22T06:07:43.772Z,1.50
2017-10-22T06:10:12.760Z,1.70
2017-10-22T06:12:42.804Z,1.58
2017-10-22T06:15:10.820Z,1.50
2017-10-22T06:17:41.796Z,1.42
2017-10-22T06:20:11.835Z,2.10
2017-10-22T06:22:40.640Z,1.83
2017-10-22T06:25:08.660Z,1.30
2017-10-22T06:27:36.700Z,1.80
2017-10-22T06:30:04.734Z,2.30
2017-10-22T06:32:33.512Z,2.70
2017-10-22T06:35:02.504Z,1.90
2017-10-22T06:37:35.568Z,2.20
2017-10-22T06:40:03.600Z,1.90
2017-10-22T06:42:32.524Z,1.70
2017-10-22T06:45:04.816Z,1.90
2017-10-22T06:47:32.831Z,1.55
2017-10-22T06:50:01.876Z,1.62
2017-10-22T06:52:29.904Z,1.85
2017-10-22T06:54:59.859Z,2.10
2017-10-22T06:57:28.775Z,1.73
2017-10-22T06:59:57.587Z,1.73
2017-10-22T07:02:25.604Z,1.85
2017-10-22T07:04:53.616Z,2.00
2017-10-22T07:07:21.648Z,1.75
2017-10-22T07:09:49.719Z,1.50
2017-10-22T07:12:18.900Z,1.48
2017-10-22T07:14:46.927Z,1.52
2017-10-22T07:17:18.924Z,2.75
2017-10-22T07:19:46.964Z,2.40
2017-10-22T07:22:14.979Z,2.45
2017-10-22T07:24:43.964Z,3.40
2017-10-22T07:27:12.007Z,3.30
2017-10-22T07:29:40.024Z,3.25
2017-10-22T07:32:09.632Z,3.65
2017-10-22T07:34:40.357Z,2.90
2017-10-22T07:37:08.384Z,3.28
2017-10-22T07:39:39.891Z,2.85
2017-10-22T07:42:10.599Z,2.72
2017-10-22T07:44:38.629Z,3.00
2017-10-22T07:47:07.600Z,3.20
2017-10-22T07:49:35.632Z,2.10
2017-10-22T07:52:03.659Z,2.33
2017-10-22T07:54:31.695Z,2.70
2017-10-22T07:57:00.475Z,1.80
2017-10-22T07:59:30.260Z,1.77
2017-10-22T08:01:58.279Z,1.70
2017-10-22T08:04:28.004Z,2.60
2017-10-22T08:06:56.923Z,1.60
2017-10-22T08:09:24.947Z,1.80
2017-10-22T08:11:52.971Z,1.57
2017-10-22T08:14:20.979Z,1.87
2017-10-22T08:16:49.042Z,1.77
2017-10-22T08:19:19.767Z,1.50
2017-10-22T08:21:48.575Z,1.83
2017-10-22T08:24:16.586Z,1.57
2017-10-22T08:26:44.621Z,1.70
2017-10-22T08:29:12.658Z,1.60
2017-10-22T08:31:40.703Z,1.57
2017-10-22T08:34:09.492Z,2.90
2017-10-22T08:36:38.511Z,1.70
2017-10-22T08:39:06.622Z,1.60
2017-10-22T08:41:35.643Z,1.70
2017-10-22T08:44:03.683Z,2.13
2017-10-22T08:46:32.723Z,1.70
2017-10-22T08:49:02.746Z,1.70
2017-10-22T08:51:32.747Z,2.03
2017-10-22T08:54:00.767Z,1.70
2017-10-22T08:56:28.787Z,1.77
2017-10-22T08:58:57.783Z,2.33
2017-10-22T09:01:27.802Z,2.20
2017-10-22T09:03:55.834Z,2.13
2017-10-22T09:06:23.851Z,1.80
2017-10-22T09:08:51.870Z,2.47
2017-10-22T09:11:19.923Z,1.80
2017-10-22T09:13:47.931Z,1.80
2017-10-22T09:16:15.962Z,2.10
2017-10-22T09:18:44.011Z,1.60
2017-10-22T09:21:12.802Z,2.33
2017-10-22T09:23:41.614Z,2.80
2017-10-22T09:26:09.651Z,1.90
2017-10-22T09:28:38.439Z,2.05
2017-10-22T09:31:07.255Z,2.67
2017-10-22T09:33:35.334Z,2.45
2017-10-22T09:36:04.263Z,1.63
2017-10-22T09:38:32.282Z,2.00
2017-10-22T09:41:01.250Z,2.30
2017-10-22T09:43:29.282Z,3.60
2017-10-22T09:45:57.300Z,2.37
2017-10-22T09:48:28.003Z,2.20
2017-10-22T09:50:56.994Z,1.80
2017-10-22T09:53:25.018Z,1.83
2017-10-22T09:55:53.039Z,2.37
2017-10-22T09:58:23.558Z,2.37
2017-10-22T10:00:51.574Z,2.10
2017-10-22T10:03:20.538Z,2.13
2017-10-22T10:05:49.539Z,2.60
2017-10-22T10:08:18.326Z,1.90
2017-10-22T10:10:48.142Z,1.40
2017-10-22T10:13:17.118Z,1.60
2017-10-22T10:15:45.123Z,1.60
2017-10-22T10:18:13.922Z,1.80
2017-10-22T10:20:42.957Z,1.70
2017-10-22T10:23:10.979Z,1.90
2017-10-22T10:25:39.006Z,1.80
2017-10-22T10:28:07.759Z,2.00
2017-10-22T10:30:36.674Z,1.43
2017-10-22T10:33:04.725Z,1.57
2017-10-22T10:35:32.758Z,1.20
2017-10-22T10:38:00.785Z,2.80
2017-10-22T10:40:28.814Z,1.67
2017-10-22T10:42:56.858Z,2.50
2017-10-22T10:45:25.645Z,1.80
2017-10-22T10:47:54.470Z,1.77
2017-10-22T10:50:23.514Z,1.77
2017-10-22T10:52:51.529Z,1.52
2017-10-22T10:55:19.579Z,1.80
2017-10-22T10:57:48.534Z,1.33
2017-10-22T11:00:16.574Z,1.35
2017-10-22T11:02:48.838Z,2.05
2017-10-22T11:05:16.870Z,2.80
2017-10-22T11:07:45.722Z,2.15
2017-10-22T11:10:13.870Z,1.73
2017-10-22T11:12:41.998Z,1.50
2017-10-22T11:15:10.054Z,1.75
2017-10-22T11:17:39.005Z,2.30
2017-10-22T11:20:07.050Z,1.47
2017-10-22T11:22:35.070Z,1.60
2017-10-22T11:25:03.118Z,1.60
2017-10-22T11:27:33.057Z,1.87
2017-10-22T11:30:03.082Z,2.00
2017-10-22T11:32:33.045Z,1.43
2017-10-22T11:35:01.906Z,1.40
2017-10-22T11:37:31.957Z,1.80
2017-10-22T11:40:00.993Z,1.60
2017-10-22T11:42:29.034Z,1.73
2017-10-22T11:44:57.285Z,1.67
2017-10-22T11:47:25.326Z,1.80
2017-10-22T11:49:53.325Z,1.90
2017-10-22T11:52:21.381Z,1.70
2017-10-22T11:54:49.423Z,1.93
2017-10-22T11:57:17.446Z,1.60
2017-10-22T11:59:45.498Z,1.30
2017-10-22T12:02:20.317Z,2.10
2017-10-22T12:04:50.274Z,1.70
2017-10-22T12:07:18.310Z,1.50
2017-10-22T12:09:47.105Z,1.20
2017-10-22T12:12:15.133Z,2.93
2017-10-22T12:14:43.154Z,1.43
2017-10-22T12:17:11.226Z,1.70
2017-10-22T12:19:40.286Z,1.90
2017-10-22T12:22:09.086Z,1.90
2017-10-22T12:24:37.118Z,1.73
2017-10-22T12:27:06.846Z,2.40
2017-10-22T12:29:35.644Z,2.40
2017-10-22T12:32:05.421Z,1.73
2017-10-22T12:34:35.469Z,2.63
2017-10-22T12:37:04.437Z,3.13
2017-10-22T12:39:32.506Z,2.20
2017-10-22T12:42:12.538Z,2.90
2017-10-22T12:44:40.565Z,2.40
2017-10-22T12:47:08.589Z,2.30
2017-10-22T12:49:37.581Z,2.20
2017-10-22T12:52:05.626Z,1.87
2017-10-22T12:54:33.678Z,1.97
2017-10-22T12:57:01.764Z,2.23
2017-10-22T12:59:30.685Z,2.00
2017-10-22T13:01:58.717Z,1.57
2017-10-22T13:04:26.769Z,2.13
2017-10-22T13:06:59.092Z,2.33
2017-10-22T13:09:27.129Z,1.83
2017-10-22T13:11:55.167Z,2.20
2017-10-22T13:14:23.956Z,1.57
2017-10-22T13:16:52.808Z,1.70
2017-10-22T13:19:20.857Z,2.07
2017-10-22T13:21:48.913Z,1.70
2017-10-22T13:24:16.969Z,1.40
2017-10-22T13:26:46.885Z,2.43
2017-10-22T13:29:16.849Z,2.10
2017-10-22T13:31:44.881Z,2.60
2017-10-22T13:34:14.001Z,1.73
2017-10-22T13:36:42.035Z,2.00
2017-10-22T13:39:10.089Z,2.57
2017-10-22T13:41:40.129Z,2.50
2017-10-22T13:44:08.230Z,1.80
2017-10-22T13:46:36.244Z,1.93
2017-10-22T13:49:05.224Z,2.50
2017-10-22T13:51:35.953Z,3.13
2017-10-22T13:54:03.984Z,1.60
2017-10-22T13:56:32.009Z,2.73
2017-10-22T13:59:00.873Z,2.37
2017-10-22T14:01:28.893Z,2.13
2017-10-22T14:03:56.953Z,2.07
2017-10-22T14:06:24.972Z,2.30
2017-10-22T14:08:56.216Z,2.27
2017-10-22T14:11:24.252Z,1.23
2017-10-22T14:13:54.231Z,2.00
2017-10-22T14:16:22.240Z,2.50
2017-10-22T14:18:51.276Z,1.80
2017-10-22T14:21:19.300Z,1.57
2017-10-22T14:23:47.317Z,1.93
2017-10-22T14:26:18.861Z,1.73
2017-10-22T14:28:46.912Z,2.50
2017-10-22T14:31:14.933Z,2.20
2017-10-22T14:33:43.725Z,2.10
2017-10-22T14:36:13.500Z,2.20
2017-10-22T14:38:42.503Z,2.63
2017-10-22T14:41:11.116Z,1.93
2017-10-22T14:43:39.904Z,1.93
2017-10-22T14:46:08.655Z,2.17
2017-10-22T14:48:36.683Z,2.10
2017-10-22T14:51:05.708Z,2.33
2017-10-22T14:53:33.736Z,2.00
2017-10-22T14:56:01.785Z,2.13
2017-10-22T14:58:31.568Z,2.00
2017-10-22T15:01:00.601Z,2.30
2017-10-22T15:03:28.648Z,2.37
2017-10-22T15:05:58.363Z,1.97
2017-10-22T15:08:27.156Z,2.00
2017-10-22T15:10:55.964Z,1.73
2017-10-22T15:13:23.996Z,2.10
2017-10-22T15:15:52.020Z,1.67
2017-10-22T15:18:20.060Z,2.57
2017-10-22T15:20:49.824Z,1.90
2017-10-22T15:23:17.848Z,1.70
2017-10-22T15:25:45.876Z,1.57
2017-10-22T15:28:13.916Z,3.37
2017-10-22T15:30:43.852Z,2.50
2017-10-22T15:33:11.889Z,2.40
2017-10-22T15:35:41.843Z,2.00
2017-10-22T15:38:09.875Z,1.83
2017-10-22T15:40:38.980Z,2.30
2017-10-22T15:43:06.988Z,2.13
2017-10-22T15:45:35.008Z,1.80
2017-10-22T15:48:04.976Z,2.00
2017-10-22T15:50:33.004Z,2.43
2017-10-22T15:53:02.013Z,1.90
2017-10-22T15:55:30.074Z,1.33
2017-10-22T15:57:58.095Z,1.58
2017-10-22T16:00:26.891Z,1.50
2017-10-22T16:02:55.924Z,0.90
2017-10-22T16:05:23.935Z,3.15
2017-10-22T16:07:52.795Z,1.60
2017-10-22T16:10:22.815Z,1.05
2017-10-22T16:12:51.811Z,2.03
2017-10-22T16:15:19.831Z,2.85
2017-10-22T16:17:50.847Z,3.15
2017-10-22T16:20:18.876Z,2.53
2017-10-22T16:22:47.888Z,2.12
2017-10-22T16:25:17.912Z,2.22
2017-10-22T16:27:45.928Z,5.00
2017-10-22T16:30:14.863Z,5.25
2017-10-22T16:32:42.900Z,5.10
2017-10-22T16:35:13.968Z,4.70
2017-10-22T16:37:41.987Z,6.05
2017-10-22T16:40:10.020Z,3.30
2017-10-22T16:42:38.023Z,3.45
2017-10-22T16:45:06.947Z,3.05
2017-10-22T16:47:34.983Z,4.15
2017-10-22T16:50:03.002Z,2.03
2017-10-22T16:52:31.012Z,1.40
2017-10-22T16:55:00.779Z,4.85
2017-10-22T16:57:29.779Z,10.00
2017-10-22T16:59:57.807Z,12.05
2017-10-22T17:02:25.836Z,4.78
2017-10-22T17:04:54.627Z,3.58
2017-10-22T17:07:22.631Z,2.22
2017-10-22T17:09:52.584Z,1.95
2017-10-22T17:12:20.594Z,1.70
2017-10-22T17:14:53.131Z,2.05
2017-10-22T17:17:22.123Z,2.00
2017-10-22T17:19:50.902Z,1.50
2017-10-22T17:22:18.927Z,1.55
2017-10-22T17:24:46.943Z,1.10
2017-10-22T17:27:15.784Z,1.50
2017-10-22T17:29:44.744Z,1.25
2017-10-22T17:32:12.747Z,2.15
2017-10-22T17:34:40.767Z,2.25
2017-10-22T17:37:08.787Z,2.55
2017-10-22T17:39:39.455Z,1.70
2017-10-22T17:42:07.473Z,1.30
2017-10-22T17:44:38.210Z,1.50
2017-10-22T17:47:07.011Z,2.50
2017-10-22T17:49:35.027Z,1.85
2017-10-22T17:52:05.067Z,2.10
2017-10-22T17:54:33.103Z,5.60
2017-10-22T17:57:01.131Z,3.50
2017-10-22T17:59:30.027Z,5.72
2017-10-22T18:01:58.058Z,2.85
2017-10-22T18:04:27.042Z,1.70
2017-10-22T18:06:55.074Z,1.85
2017-10-22T18:09:23.074Z,3.62
2017-10-22T18:11:53.110Z,12.35
2017-10-22T18:14:21.166Z,4.32
2017-10-22T18:16:50.059Z,2.95
2017-10-22T18:19:18.067Z,3.62
2017-10-22T18:21:46.859Z,3.35
2017-10-22T18:24:15.630Z,1.85
2017-10-22T18:26:44.443Z,2.67
2017-10-22T18:29:12.466Z,2.03
2017-10-22T18:31:41.378Z,3.25
2017-10-22T18:34:10.154Z,2.17
2017-10-22T18:36:38.186Z,2.30
2017-10-22T18:39:07.186Z,1.52
2017-10-22T18:41:37.090Z,1.90
2017-10-22T18:44:05.175Z,1.12
2017-10-22T18:46:33.179Z,1.58
2017-10-22T18:49:01.999Z,1.40
2017-10-22T18:51:30.026Z,1.12
2017-10-22T18:53:59.054Z,1.40
2017-10-22T18:56:27.066Z,1.55
2017-10-22T18:58:55.126Z,1.10
2017-10-22T19:01:23.181Z,1.75
2017-10-22T19:03:51.198Z,1.17
2017-10-22T19:06:19.226Z,1.00
2017-10-22T19:08:47.242Z,1.42
2017-10-22T19:11:15.266Z,1.00
2017-10-22T19:13:43.279Z,1.40
2017-10-22T19:16:11.309Z,0.98
2017-10-22T19:18:39.322Z,1.55
2017-10-22T19:21:08.115Z,1.30
2017-10-22T19:23:36.890Z,1.50
2017-10-22T19:26:04.906Z,1.15
2017-10-22T19:28:33.838Z,1.00
2017-10-22T19:31:01.866Z,0.95
2017-10-22T19:33:29.881Z,1.08
2017-10-22T19:35:58.810Z,1.30
2017-10-22T19:38:26.829Z,1.92
2017-10-22T19:40:55.830Z,1.60
2017-10-22T19:43:25.857Z,1.50
2017-10-22T19:45:54.833Z,1.12
2017-10-22T19:48:23.845Z,1.35
2017-10-22T19:50:51.869Z,1.37
2017-10-22T19:53:25.409Z,1.20
2017-10-22T19:55:53.662Z,1.17
2017-10-22T19:58:21.754Z,1.42
2017-10-22T20:00:50.748Z,1.65
2017-10-22T20:03:18.789Z,1.30
2017-10-22T20:05:48.709Z,1.40
2017-10-22T20:08:16.730Z,1.65
2017-10-22T20:10:44.801Z,1.50
2017-10-22T20:13:12.842Z,1.85
2017-10-22T20:15:42.585Z,1.55
2017-10-22T20:18:10.606Z,1.55
2017-10-22T20:20:39.626Z,2.22
2017-10-22T20:23:10.334Z,1.50
2017-10-22T20:25:38.367Z,1.75
2017-10-22T20:28:07.402Z,1.40
2017-10-22T20:30:35.457Z,2.45
2017-10-22T20:33:04.491Z,1.85
2017-10-22T20:35:33.441Z,1.60
2017-10-22T20:38:01.501Z,1.83
2017-10-22T20:40:29.541Z,1.85
2017-10-22T20:42:57.609Z,1.65
2017-10-22T20:45:26.570Z,2.05
2017-10-22T20:47:55.549Z,1.83
2017-10-22T20:50:23.597Z,1.90
2017-10-22T20:52:51.664Z,3.78
2017-10-22T20:55:22.954Z,4.43
2017-10-22T20:57:50.984Z,2.33
2017-10-22T21:00:19.772Z,1.62
2017-10-22T21:02:47.829Z,1.90
2017-10-22T21:05:16.865Z,1.87
2017-10-22T21:07:44.889Z,1.98
2017-10-22T21:10:13.949Z,3.30
2017-10-22T21:12:43.737Z,2.60
2017-10-22T21:15:11.757Z,1.87
2017-10-22T21:17:40.710Z,2.17
2017-10-22T21:20:08.725Z,2.00
2017-10-22T21:22:37.765Z,2.50
2017-10-22T21:25:05.782Z,3.30
2017-10-22T21:27:33.806Z,3.00
2017-10-22T21:30:03.809Z,2.25
2017-10-22T21:32:31.849Z,2.62
2017-10-22T21:34:59.854Z,3.08
2017-10-22T21:37:27.873Z,2.90
2017-10-22T21:39:56.797Z,2.55
2017-10-22T21:42:26.825Z,2.90
2017-10-22T21:44:54.847Z,2.95
2017-10-22T21:47:22.869Z,2.53
2017-10-22T21:49:50.984Z,3.20
2017-10-22T21:52:18.993Z,2.60
2017-10-22T21:54:47.989Z,3.47
2017-10-22T21:57:16.029Z,2.85
2017-10-22T21:59:44.049Z,3.78
2017-10-22T22:02:12.085Z,3.03
2017-10-22T22:04:41.110Z,2.95
2017-10-22T22:07:09.133Z,3.28
2017-10-22T22:09:37.157Z,3.53
2017-10-22T22:12:05.173Z,3.22
2017-10-22T22:14:34.209Z,4.07
2017-10-22T22:17:03.212Z,2.95
2017-10-22T22:19:31.236Z,3.55
2017-10-22T22:21:59.268Z,3.92
2017-10-22T22:24:29.956Z,4.22
2017-10-22T22:26:57.988Z,3.28
2017-10-22T22:29:26.925Z,3.37
2017-10-22T22:31:54.944Z,3.97
2017-10-22T22:34:27.105Z,4.07
2017-10-22T22:36:55.888Z,3.62
2017-10-22T22:39:25.654Z,4.45
2017-10-22T22:41:53.693Z,4.93
2017-10-22T22:44:21.728Z,4.68
2017-10-22T22:46:51.512Z,4.43
2017-10-22T22:49:19.540Z,3.85
2017-10-22T22:51:47.577Z,4.50
2017-10-22T22:54:16.394Z,3.72
2017-10-22T22:56:45.156Z,4.20
2017-10-22T22:59:15.972Z,4.00
2017-10-22T23:01:46.092Z,3.90
2017-10-22T23:04:14.113Z,4.30
2017-10-22T23:06:42.136Z,3.80
2017-10-22T23:09:10.928Z,3.65
2017-10-22T23:11:40.732Z,4.10
2017-10-22T23:14:08.744Z,4.62
2017-10-22T23:16:36.864Z,4.10
2017-10-22T23:19:17.085Z,4.35
2017-10-22T23:21:46.128Z,4.00
2017-10-22T23:24:15.929Z,3.50
2017-10-22T23:26:47.574Z,4.50
2017-10-22T23:29:15.600Z,3.78
2017-10-22T23:31:43.620Z,2.87
2017-10-22T23:34:11.640Z,4.22
2017-10-22T23:36:44.436Z,4.57
2017-10-22T23:39:13.608Z,3.90
2017-10-22T23:41:41.633Z,3.45
2017-10-22T23:44:09.659Z,3.03
2017-10-22T23:46:38.604Z,3.53
2017-10-22T23:49:06.620Z,3.35
2017-10-22T23:51:35.563Z,3.83
2017-10-22T23:54:03.572Z,3.30
2017-10-22T23:56:32.533Z,4.20
2017-10-22T23:59:00.551Z,3.30
